createdAt,value
2019-04-11T00:01:33.362Z,45.50
2019-04-11T00:03:51.484Z,45.10
2019-04-11T00:06:20.872Z,45.20
2019-04-11T00:08:50.687Z,45.20
2019-04-11T00:11:20.135Z,45.50
2019-04-11T00:13:49.590Z,45.40
2019-04-11T00:16:19.485Z,45.70
2019-04-11T00:18:49.916Z,45.70
2019-04-11T00:21:20.197Z,45.80
2019-04-11T00:23:50.307Z,45.90
2019-04-11T00:26:20.183Z,45.90
2019-04-11T00:28:50.084Z,46.00
2019-04-11T00:31:19.456Z,46.00
2019-04-11T00:33:49.009Z,46.20
2019-04-11T00:36:18.517Z,46.20
2019-04-11T00:38:48.115Z,46.30
2019-04-11T00:41:18.092Z,46.40
2019-04-11T00:43:47.463Z,46.60
2019-04-11T00:46:16.823Z,46.70
2019-04-11T00:48:46.191Z,46.90
2019-04-11T00:51:17.118Z,47.00
2019-04-11T00:53:46.707Z,47.10
2019-04-11T00:56:16.081Z,47.00
2019-04-11T00:58:45.745Z,47.20
2019-04-11T01:01:15.661Z,47.30
2019-04-11T01:03:45.471Z,47.50
2019-04-11T01:06:14.851Z,47.50
2019-04-11T01:08:44.217Z,47.50
2019-04-11T01:11:14.266Z,47.70
2019-04-11T01:13:49.098Z,48.00
2019-04-11T01:16:34.910Z,47.90
2019-04-11T01:19:04.674Z,48.10
2019-04-11T01:21:35.140Z,48.00
2019-04-11T01:24:05.337Z,48.10
2019-04-11T01:26:35.081Z,48.50
2019-04-11T01:29:05.137Z,48.20
2019-04-11T01:31:39.895Z,48.40
2019-04-11T01:34:10.547Z,48.70
2019-04-11T01:36:40.306Z,48.70
2019-04-11T01:39:29.418Z,48.70
2019-04-11T01:41:59.230Z,48.90
2019-04-11T01:44:28.599Z,49.00
2019-04-11T01:46:58.351Z,48.90
2019-04-11T01:49:30.324Z,49.20
2019-04-11T01:52:00.207Z,49.40
2019-04-11T01:54:30.086Z,49.20
2019-04-11T01:56:59.505Z,49.80
2019-04-11T01:59:31.249Z,49.70
2019-04-11T02:02:08.035Z,49.70
2019-04-11T02:04:46.014Z,49.60
2019-04-11T02:07:15.450Z,49.40
2019-04-11T02:09:46.277Z,49.90
2019-04-11T02:12:16.288Z,50.00
2019-04-11T02:14:45.960Z,50.40
2019-04-11T02:17:15.301Z,50.10
2019-04-11T02:19:44.825Z,50.40
2019-04-11T02:22:18.770Z,50.20
2019-04-11T02:25:06.330Z,50.20
2019-04-11T02:27:37.345Z,50.00
2019-04-11T02:30:11.192Z,49.80
2019-04-11T02:32:42.694Z,50.00
2019-04-11T02:35:13.446Z,50.10
2019-04-11T02:37:44.457Z,50.20
2019-04-11T02:40:15.428Z,50.20
2019-04-11T02:42:45.696Z,50.30
2019-04-11T02:45:27.333Z,50.20
2019-04-11T02:47:48.753Z,50.20
2019-04-11T02:50:19.786Z,50.20
2019-04-11T02:52:49.810Z,50.20
2019-04-11T02:55:21.051Z,50.20
2019-04-11T02:57:51.231Z,50.20
2019-04-11T03:00:20.982Z,50.30
2019-04-11T03:02:52.693Z,50.20
2019-04-11T03:05:21.680Z,50.20
2019-04-11T03:07:51.546Z,50.30
2019-04-11T03:10:21.641Z,50.30
2019-04-11T03:12:52.686Z,50.30
2019-04-11T03:15:39.237Z,50.30
2019-04-11T03:17:57.670Z,50.40
2019-04-11T03:20:32.547Z,50.30
2019-04-11T03:23:00.073Z,50.40
2019-04-11T03:25:28.472Z,50.40
2019-04-11T03:28:01.480Z,50.60
2019-04-11T03:30:51.905Z,50.70
2019-04-11T03:36:23.746Z,50.80
2019-04-11T03:38:29.344Z,50.70
2019-04-11T03:40:57.741Z,51.10
2019-04-11T03:43:24.376Z,51.10
2019-04-11T03:46:01.836Z,51.40
2019-04-11T03:48:26.682Z,51.60
2019-04-11T03:50:44.543Z,51.50
2019-04-11T03:53:14.509Z,51.60
2019-04-11T03:55:45.514Z,51.70
2019-04-11T03:58:15.656Z,51.80
2019-04-11T04:00:49.522Z,51.10
2019-04-11T04:03:18.343Z,52.00
2019-04-11T04:05:48.803Z,52.00
2019-04-11T04:08:20.445Z,52.20
2019-04-11T04:11:09.187Z,52.50
2019-04-11T04:13:40.502Z,52.40
2019-04-11T04:16:27.495Z,52.60
2019-04-11T04:18:58.597Z,52.70
2019-04-11T04:21:33.315Z,52.70
2019-04-11T04:24:06.372Z,53.00
2019-04-11T04:26:35.982Z,53.00
2019-04-11T04:29:05.416Z,53.10
2019-04-11T04:31:35.109Z,53.20
2019-04-11T04:34:04.501Z,53.40
2019-04-11T04:36:34.794Z,53.70
2019-04-11T04:39:05.907Z,53.80
2019-04-11T04:41:42.735Z,53.70
2019-04-11T04:44:09.143Z,53.80
2019-04-11T04:46:54.774Z,54.00
2019-04-11T04:49:11.180Z,53.90
2019-04-11T04:51:41.593Z,54.30
2019-04-11T04:54:12.101Z,54.20
2019-04-11T04:56:43.208Z,54.20
2019-04-11T04:59:14.635Z,54.30
2019-04-11T05:01:46.288Z,54.50
2019-04-11T05:04:15.873Z,54.60
2019-04-11T05:06:48.208Z,54.70
2019-04-11T05:09:17.791Z,54.70
2019-04-11T05:11:48.617Z,54.70
2019-04-11T05:14:18.873Z,54.80
2019-04-11T05:16:50.308Z,54.90
2019-04-11T05:19:19.777Z,54.90
2019-04-11T05:21:49.870Z,55.10
2019-04-11T05:24:19.283Z,54.90
2019-04-11T05:26:48.636Z,54.80
2019-04-11T05:29:18.006Z,55.00
2019-04-11T05:31:47.370Z,55.10
2019-04-11T05:34:16.721Z,55.10
2019-04-11T05:36:49.889Z,55.00
2019-04-11T05:39:20.063Z,55.20
2019-04-11T05:41:49.981Z,55.30
2019-04-11T05:44:20.937Z,55.40
2019-04-11T05:46:57.150Z,55.70
2019-04-11T05:49:36.561Z,55.50
2019-04-11T05:52:08.103Z,55.40
2019-04-11T05:54:41.404Z,55.40
2019-04-11T05:57:11.315Z,55.20
2019-04-11T05:59:43.272Z,55.10
2019-04-11T06:02:15.097Z,55.30
2019-04-11T06:04:52.870Z,55.20
2019-04-11T06:07:27.382Z,55.20
2019-04-11T06:10:09.741Z,55.20
2019-04-11T06:12:43.576Z,55.30
2019-04-11T06:15:31.258Z,55.00
2019-04-11T06:18:02.800Z,54.50
2019-04-11T06:20:45.193Z,54.50
2019-04-11T06:23:25.537Z,54.90
2019-04-11T06:25:57.599Z,54.80
2019-04-11T06:28:29.193Z,54.60
2019-04-11T06:31:04.592Z,54.50
2019-04-11T06:33:36.560Z,54.60
2019-04-11T06:36:26.511Z,54.60
2019-04-11T06:39:09.284Z,54.50
2019-04-11T06:41:43.090Z,54.30
2019-04-11T06:44:35.085Z,54.30
2019-04-11T06:47:22.900Z,54.70
2019-04-11T06:49:58.614Z,54.40
2019-04-11T06:52:29.269Z,54.30
2019-04-11T06:55:09.196Z,54.20
2019-04-11T06:57:40.484Z,54.00
2019-04-11T07:02:53.539Z,53.90
2019-04-11T07:05:24.728Z,53.70
2019-04-11T07:07:56.007Z,53.70
2019-04-11T07:10:36.239Z,53.60
2019-04-11T07:13:07.793Z,53.60
2019-04-11T07:15:39.785Z,53.40
2019-04-11T07:18:27.010Z,53.20
2019-04-11T07:20:58.577Z,53.10
2019-04-11T07:23:47.027Z,52.80
2019-04-11T07:26:37.314Z,52.70
2019-04-11T07:29:25.689Z,52.50
2019-04-11T07:31:57.179Z,52.40
2019-04-11T07:34:44.205Z,52.30
2019-04-11T07:37:26.409Z,52.00
2019-04-11T07:40:15.910Z,51.70
2019-04-11T07:42:52.098Z,51.60
2019-04-11T07:45:23.122Z,51.30
2019-04-11T07:47:54.850Z,51.20
2019-04-11T07:50:24.932Z,51.00
2019-04-11T07:52:56.921Z,50.70
2019-04-11T07:55:26.321Z,50.40
2019-04-11T07:58:13.180Z,50.00
2019-04-11T08:00:51.282Z,49.20
2019-04-11T08:03:26.254Z,49.50
2019-04-11T08:06:05.119Z,49.50
2019-04-11T08:08:49.325Z,49.20
2019-04-11T08:11:20.763Z,49.10
2019-04-11T08:14:02.113Z,48.50
2019-04-11T08:16:55.352Z,48.30
2019-04-11T08:19:42.756Z,48.10
2019-04-11T08:22:27.226Z,47.90
2019-04-11T08:25:15.377Z,47.40
2019-04-11T08:28:00.231Z,47.30
2019-04-11T08:30:24.984Z,46.90
2019-04-11T08:32:56.048Z,46.20
2019-04-11T08:35:28.235Z,46.00
2019-04-11T08:38:05.334Z,45.80
2019-04-11T08:40:49.940Z,45.60
2019-04-11T08:43:21.411Z,45.20
2019-04-11T08:46:02.493Z,44.80
2019-04-11T08:48:33.585Z,44.80
2019-04-11T08:51:09.755Z,44.80
2019-04-11T08:53:44.818Z,44.70
2019-04-11T08:56:16.225Z,43.40
2019-04-11T08:59:13.318Z,43.00
2019-04-11T09:01:42.896Z,42.30
2019-04-11T09:04:26.168Z,42.40
2019-04-11T09:06:56.902Z,42.50
2019-04-11T09:09:45.574Z,42.20
2019-04-11T09:12:15.237Z,41.00
2019-04-11T09:14:50.545Z,40.40
2019-04-11T09:17:26.063Z,40.40
2019-04-11T09:19:57.318Z,40.80
2019-04-11T09:22:31.231Z,40.60
2019-04-11T09:25:11.178Z,40.00
2019-04-11T09:28:00.678Z,39.70
2019-04-11T09:30:47.918Z,39.70
2019-04-11T09:33:18.926Z,39.90
2019-04-11T09:35:49.934Z,39.30
2019-04-11T09:38:33.276Z,39.50
2019-04-11T09:41:04.291Z,39.50
2019-04-11T09:43:38.266Z,39.10
2019-04-11T09:46:26.203Z,39.50
2019-04-11T09:49:13.612Z,39.00
2019-04-11T09:51:47.855Z,38.40
2019-04-11T09:54:30.847Z,38.30
2019-04-11T09:57:05.306Z,38.50
2019-04-11T09:59:42.309Z,38.40
2019-04-11T10:02:25.662Z,37.80
2019-04-11T10:04:58.372Z,38.10
2019-04-11T10:07:35.537Z,38.10
2019-04-11T10:10:26.749Z,38.60
2019-04-11T10:13:08.782Z,38.50
2019-04-11T10:15:45.621Z,38.40
2019-04-11T10:18:37.309Z,38.10
2019-04-11T10:21:04.847Z,38.20
2019-04-11T10:23:36.681Z,38.30
2019-04-11T10:26:06.239Z,38.20
2019-04-11T10:28:43.967Z,38.40
2019-04-11T10:31:14.566Z,38.60
2019-04-11T10:34:03.246Z,38.40
2019-04-11T10:36:38.968Z,38.50
2019-04-11T10:39:24.973Z,38.00
2019-04-11T10:41:56.176Z,37.80
2019-04-11T10:44:27.217Z,37.50
2019-04-11T10:46:59.776Z,37.80
2019-04-11T10:49:37.101Z,37.60
2019-04-11T10:52:20.434Z,37.50
2019-04-11T10:55:07.511Z,37.40
2019-04-11T10:57:54.552Z,37.60
2019-04-11T11:00:31.390Z,37.60
2019-04-11T11:03:08.180Z,38.80
2019-04-11T11:05:45.742Z,37.10
2019-04-11T11:08:35.049Z,37.50
2019-04-11T11:11:16.425Z,36.80
2019-04-11T11:13:48.027Z,37.00
2019-04-11T11:16:20.178Z,36.70
2019-04-11T11:19:24.605Z,36.80
2019-04-11T11:21:29.922Z,37.00
2019-04-11T11:24:13.731Z,37.10
2019-04-11T11:26:43.371Z,37.20
2019-04-11T11:29:18.920Z,37.40
2019-04-11T11:31:50.335Z,37.70
2019-04-11T11:34:24.837Z,37.70
2019-04-11T11:36:56.759Z,37.50
2019-04-11T11:39:37.392Z,37.60
2019-04-11T11:42:24.891Z,37.70
2019-04-11T11:44:57.195Z,37.90
2019-04-11T11:47:46.357Z,37.90
2019-04-11T11:50:23.882Z,37.90
2019-04-11T11:53:08.206Z,38.10
2019-04-11T11:55:41.160Z,38.40
2019-04-11T11:58:16.827Z,38.50
2019-04-11T12:00:45.769Z,38.50
2019-04-11T12:03:29.159Z,38.70
2019-04-11T12:05:59.082Z,38.90
2019-04-11T12:08:30.797Z,39.10
2019-04-11T12:11:02.137Z,39.40
2019-04-11T12:13:33.147Z,39.60
2019-04-11T12:16:21.410Z,39.70
2019-04-11T12:19:00.573Z,39.70
2019-04-11T12:21:32.043Z,39.50
2019-04-11T12:24:09.688Z,39.50
2019-04-11T12:26:47.691Z,39.60
2019-04-11T12:29:24.003Z,39.70
2019-04-11T12:31:55.801Z,39.60
2019-04-11T12:34:36.576Z,39.70
2019-04-11T12:37:08.488Z,39.50
2019-04-11T12:39:55.772Z,39.40
2019-04-11T12:42:27.015Z,39.20
2019-04-11T12:45:14.463Z,39.00
2019-04-11T12:47:44.731Z,38.60
2019-04-11T12:50:32.960Z,38.70
2019-04-11T12:53:04.549Z,38.50
2019-04-11T12:55:35.630Z,37.90
2019-04-11T12:58:15.851Z,37.80
2019-04-11T13:03:31.928Z,37.70
2019-04-11T13:06:19.295Z,37.70
2019-04-11T13:09:06.598Z,37.60
2019-04-11T13:11:43.426Z,37.40
2019-04-11T13:14:14.448Z,37.30
2019-04-11T13:16:45.463Z,37.20
2019-04-11T13:19:28.536Z,37.20
2019-04-11T13:22:02.484Z,37.20
2019-04-11T13:24:49.838Z,37.30
2019-04-11T13:27:20.980Z,37.50
2019-04-11T13:29:52.063Z,37.50
2019-04-11T13:32:28.737Z,37.50
2019-04-11T13:35:08.898Z,37.60
2019-04-11T13:37:39.912Z,37.70
2019-04-11T13:40:17.152Z,37.60
2019-04-11T13:43:04.802Z,37.50
2019-04-11T13:45:38.519Z,37.50
2019-04-11T13:48:25.835Z,37.60
2019-04-11T13:50:56.855Z,37.60
2019-04-11T13:53:33.567Z,37.70
2019-04-11T13:56:03.214Z,37.70
2019-04-11T13:58:34.239Z,37.70
2019-04-11T14:01:05.152Z,37.70
2019-04-11T14:03:37.025Z,38.00
2019-04-11T14:06:08.055Z,37.90
2019-04-11T14:08:42.042Z,38.00
2019-04-11T14:11:13.136Z,38.20
2019-04-11T14:13:44.079Z,38.10
2019-04-11T14:16:21.186Z,38.20
2019-04-11T14:19:07.402Z,38.20
2019-04-11T14:21:37.347Z,38.20
2019-04-11T14:24:11.690Z,38.20
2019-04-11T14:26:52.030Z,38.30
2019-04-11T14:29:23.034Z,38.20
2019-04-11T14:31:57.000Z,38.40
2019-04-11T14:34:44.170Z,38.30
2019-04-11T14:37:21.238Z,38.30
2019-04-11T14:39:52.257Z,38.40
2019-04-11T14:42:29.617Z,38.40
2019-04-11T14:44:58.995Z,38.70
2019-04-11T14:47:39.315Z,38.70
2019-04-11T14:50:11.837Z,38.90
2019-04-11T14:53:01.337Z,39.10
2019-04-11T14:55:30.982Z,39.20
2019-04-11T14:58:19.015Z,39.40
2019-04-11T15:00:48.386Z,39.50
2019-04-11T15:03:25.319Z,39.70
2019-04-11T15:06:05.549Z,39.60
2019-04-11T15:08:42.639Z,39.70
2019-04-11T15:11:13.657Z,39.80
2019-04-11T15:13:45.792Z,39.80
2019-04-11T15:16:33.941Z,40.00
2019-04-11T15:19:03.489Z,40.10
2019-04-11T15:21:46.793Z,40.30
2019-04-11T15:24:16.160Z,40.40
2019-04-11T15:26:56.123Z,41.10
2019-04-11T15:29:27.146Z,40.70
2019-04-11T15:32:04.014Z,40.80
2019-04-11T15:34:35.217Z,40.90
2019-04-11T15:37:06.230Z,41.00
2019-04-11T15:39:44.633Z,41.00
2019-04-11T15:42:24.761Z,41.00
2019-04-11T15:44:55.749Z,41.00
2019-04-11T15:47:25.111Z,41.10
2019-04-11T15:50:12.760Z,41.00
2019-04-11T15:52:43.762Z,41.20
2019-04-11T15:55:17.698Z,41.20
2019-04-11T15:57:47.084Z,41.40
2019-04-11T16:00:35.002Z,41.70
2019-04-11T16:03:06.066Z,41.90
2019-04-11T16:05:55.243Z,42.20
2019-04-11T16:08:26.721Z,42.30
2019-04-11T16:11:03.595Z,42.20
2019-04-11T16:13:50.668Z,42.20
2019-04-11T16:16:21.678Z,42.20
2019-04-11T16:19:09.285Z,42.10
2019-04-11T16:21:42.976Z,42.10
2019-04-11T16:24:13.977Z,42.20
2019-04-11T16:27:00.620Z,42.20
2019-04-11T16:29:31.639Z,42.30
2019-04-11T16:32:02.681Z,42.30
2019-04-11T16:34:54.497Z,42.40
2019-04-11T16:37:21.111Z,42.50
2019-04-11T16:40:08.465Z,42.50
2019-04-11T16:42:39.921Z,42.70
2019-04-11T16:45:14.167Z,42.70
2019-04-11T16:47:56.174Z,42.60
2019-04-11T16:50:25.128Z,42.50
2019-04-11T16:52:54.487Z,42.50
2019-04-11T16:55:23.921Z,42.70
2019-04-11T16:57:53.283Z,42.80
2019-04-11T17:00:22.710Z,42.90
2019-04-11T17:02:54.719Z,42.90
2019-04-11T17:05:24.054Z,43.00
2019-04-11T17:08:05.346Z,43.00
2019-04-11T17:10:56.794Z,43.10
2019-04-11T17:13:25.955Z,43.00
2019-04-11T17:15:54.810Z,43.10
2019-04-11T17:18:24.168Z,43.20
2019-04-11T17:20:53.579Z,43.40
2019-04-11T17:23:23.032Z,43.50
2019-04-11T17:25:52.974Z,43.70
2019-04-11T17:28:23.763Z,43.70
2019-04-11T17:30:55.757Z,43.80
2019-04-11T17:33:27.514Z,44.10
2019-04-11T17:35:55.473Z,44.20
2019-04-11T17:38:24.848Z,44.60
2019-04-11T17:40:54.208Z,45.10
2019-04-11T17:43:23.672Z,45.40
2019-04-11T17:45:56.942Z,45.80
2019-04-11T17:48:24.654Z,46.50
2019-04-11T17:50:54.552Z,46.20
2019-04-11T17:53:24.890Z,46.30
2019-04-11T17:55:55.139Z,46.50
2019-04-11T17:58:26.985Z,46.80
2019-04-11T18:00:57.248Z,47.00
2019-04-11T18:03:26.611Z,47.00
2019-04-11T18:05:56.401Z,47.20
2019-04-11T18:08:25.768Z,47.30
2019-04-11T18:10:56.024Z,47.60
2019-04-11T18:13:30.559Z,47.60
2019-04-11T18:16:00.899Z,47.90
2019-04-11T18:18:28.500Z,48.10
2019-04-11T18:20:57.931Z,48.10
2019-04-11T18:23:27.290Z,48.10
2019-04-11T18:25:56.725Z,48.10
2019-04-11T18:28:26.101Z,48.30
2019-04-11T18:30:55.462Z,48.40
2019-04-11T18:33:24.834Z,48.50
2019-04-11T18:35:54.209Z,48.40
2019-04-11T18:38:23.566Z,48.40
2019-04-11T18:40:52.928Z,48.50
2019-04-11T18:43:25.400Z,48.60
2019-04-11T18:45:53.859Z,48.70
2019-04-11T18:48:23.326Z,48.60
2019-04-11T18:50:53.197Z,48.50
2019-04-11T18:53:23.143Z,49.40
2019-04-11T18:55:52.562Z,48.60
2019-04-11T18:58:21.937Z,48.60
2019-04-11T19:00:51.314Z,48.80
2019-04-11T19:03:20.665Z,48.60
2019-04-11T19:05:50.061Z,48.60
2019-04-11T19:08:19.478Z,48.90
2019-04-11T19:10:48.867Z,48.80
2019-04-11T19:13:18.248Z,48.80
2019-04-11T19:15:47.612Z,48.90
2019-04-11T19:18:17.210Z,49.00
2019-04-11T19:20:49.851Z,49.00
2019-04-11T19:23:18.095Z,49.10
2019-04-11T19:25:47.467Z,49.20
2019-04-11T19:28:16.852Z,49.20
2019-04-11T19:30:46.375Z,49.10
2019-04-11T19:33:15.720Z,49.30
2019-04-11T19:35:45.096Z,49.30
2019-04-11T19:38:31.060Z,49.30
2019-04-11T19:41:00.440Z,49.40
2019-04-11T19:43:29.788Z,49.40
2019-04-11T19:45:59.153Z,49.50
2019-04-11T19:48:28.832Z,49.80
2019-04-11T19:50:59.543Z,49.60
2019-04-11T19:53:32.764Z,49.70
2019-04-11T19:56:02.914Z,49.90
2019-04-11T19:58:32.713Z,49.90
2019-04-11T20:01:02.182Z,49.90
2019-04-11T20:03:31.840Z,49.90
2019-04-11T20:06:01.425Z,50.00
2019-04-11T20:08:30.777Z,50.10
2019-04-11T20:11:01.442Z,50.00
2019-04-11T20:13:32.798Z,50.20
2019-04-11T20:16:02.191Z,50.30
2019-04-11T20:18:31.562Z,50.20
2019-04-11T20:21:00.974Z,50.10
2019-04-11T20:23:30.288Z,50.00
2019-04-11T20:25:59.941Z,50.10
2019-04-11T20:28:29.309Z,50.10
2019-04-11T20:30:58.671Z,50.20
2019-04-11T20:33:28.425Z,50.30
2019-04-11T20:35:57.777Z,50.00
2019-04-11T20:38:27.143Z,50.20
2019-04-11T20:40:56.509Z,50.10
2019-04-11T20:43:25.864Z,50.00
2019-04-11T20:45:57.922Z,50.40
2019-04-11T20:48:26.376Z,50.20
2019-04-11T20:50:55.738Z,50.10
2019-04-11T20:53:25.394Z,50.20
2019-04-11T20:55:54.762Z,50.20
2019-04-11T20:58:27.621Z,50.20
2019-04-11T21:00:55.968Z,50.30
2019-04-11T21:03:29.890Z,50.30
2019-04-11T21:05:59.036Z,50.40
2019-04-11T21:08:28.108Z,50.20
2019-04-11T21:10:57.948Z,50.20
2019-04-11T21:13:27.321Z,50.20
2019-04-11T21:15:56.689Z,50.20
2019-04-11T21:18:26.357Z,50.20
2019-04-11T21:20:55.921Z,50.20
2019-04-11T21:23:29.487Z,50.20
2019-04-11T21:25:58.877Z,50.20
2019-04-11T21:28:27.910Z,50.10
2019-04-11T21:31:00.152Z,50.10
2019-04-11T21:33:34.241Z,50.20
2019-04-11T21:36:02.064Z,50.10
2019-04-11T21:38:31.690Z,50.20
2019-04-11T21:41:01.095Z,50.20
2019-04-11T21:43:30.426Z,50.20
2019-04-11T21:45:59.792Z,50.30
2019-04-11T21:48:29.178Z,50.30
2019-04-11T21:50:58.540Z,50.50
2019-04-11T21:53:36.433Z,50.30
2019-04-11T21:56:00.878Z,50.50
2019-04-11T21:58:30.238Z,50.90
2019-04-11T22:01:04.278Z,50.40
2019-04-11T22:03:33.659Z,50.50
2019-04-11T22:06:03.035Z,50.20
2019-04-11T22:08:34.461Z,50.30
2019-04-11T22:11:04.775Z,50.40
2019-04-11T22:13:34.132Z,50.40
2019-04-11T22:16:03.503Z,50.60
2019-04-11T22:18:32.878Z,50.60
2019-04-11T22:21:02.248Z,50.70
2019-04-11T22:23:31.614Z,50.80
2019-04-11T22:26:00.986Z,50.80
2019-04-11T22:28:30.359Z,50.80
2019-04-11T22:30:59.716Z,50.80
2019-04-11T22:33:33.694Z,51.00
2019-04-11T22:36:03.070Z,51.00
2019-04-11T22:38:32.416Z,51.10
2019-04-11T22:41:02.651Z,51.10
2019-04-11T22:43:32.215Z,51.10
2019-04-11T22:46:01.577Z,51.20
2019-04-11T22:48:30.944Z,51.50
2019-04-11T22:51:00.307Z,52.00
2019-04-11T22:53:29.738Z,51.60
2019-04-11T22:55:59.451Z,51.60
2019-04-11T22:58:29.867Z,51.70
2019-04-11T23:00:59.281Z,51.80
2019-04-11T23:03:30.249Z,51.90
2019-04-11T23:05:59.606Z,52.10
2019-04-11T23:08:28.965Z,52.00
2019-04-11T23:10:58.330Z,52.10
2019-04-11T23:13:27.709Z,52.00
2019-04-11T23:15:57.046Z,52.40
2019-04-11T23:18:49.076Z,52.30
2019-04-11T23:21:14.318Z,52.40
2019-04-11T23:23:46.351Z,52.60
2019-04-11T23:26:15.659Z,52.00
2019-04-11T23:28:46.725Z,52.40
2019-04-11T23:31:19.955Z,52.90
2019-04-11T23:33:51.728Z,52.90
2019-04-11T23:36:21.329Z,53.00
2019-04-11T23:38:52.705Z,53.00
2019-04-11T23:41:21.712Z,53.10
2019-04-11T23:43:51.069Z,53.10
2019-04-11T23:46:21.399Z,53.10
2019-04-11T23:48:54.566Z,53.30
2019-04-11T23:51:25.491Z,53.10
2019-04-11T23:53:53.924Z,53.40
2019-04-11T23:56:23.289Z,53.50
2019-04-11T23:58:52.995Z,53.50
